Time;durP1;ratioP1;P1;durP2;ratioP2;P2;SDS_P1;SDS_P2;PMS_P1;PMS_P2;Temp;Humidity;BMP_temperature;BMP_pressure;BME280_temperature;BME280_humidity;BME280_pressure;Samples;Min_cycle;Max_cycle;Signal;HPM_P1;HPM_P2
2024/02/02 00:00:07;;;;;;;0.30;0.30;;;7.10;99.90;;;;;;5107689;28;20280;-80
2024/02/02 00:02:37;;;;;;;0.30;0.20;;;7.10;99.90;;;;;;5108362;28;20288;-80
2024/02/02 00:05:04;;;;;;;0.30;0.20;;;7.10;99.90;;;;;;5123078;27;20203;-83
2024/02/02 00:07:30;;;;;;;0.30;0.20;;;7.10;99.90;;;;;;5123263;27;20212;-83
2024/02/02 00:09:59;;;;;;;0.30;0.20;;;7.10;99.90;;;;;;5107632;28;20242;-81
2024/02/02 00:12:25;;;;;;;0.30;0.20;;;7.10;99.90;;;;;;5123798;27;20721;-83
2024/02/02 00:14:51;;;;;;;0.30;0.20;;;7.10;99.90;;;;;;5123285;27;20180;-80
2024/02/02 00:17:18;;;;;;;0.30;0.20;;;7.10;99.90;;;;;;5108216;28;20256;-83
2024/02/02 00:19:44;;;;;;;0.30;0.20;;;7.10;99.90;;;;;;5107766;28;20414;-82
2024/02/02 00:22:09;;;;;;;0.30;0.20;;;7.10;99.90;;;;;;5107467;28;20254;-80
2024/02/02 00:24:35;;;;;;;0.30;0.30;;;7.00;99.90;;;;;;5123100;27;20225;-83
2024/02/02 00:27:02;;;;;;;0.30;0.20;;;7.00;99.90;;;;;;5107798;28;20207;-80
2024/02/02 00:29:28;;;;;;;0.30;0.30;;;7.00;99.90;;;;;;5123067;27;20424;-82
2024/02/02 00:31:54;;;;;;;0.30;0.30;;;7.00;99.90;;;;;;5106860;28;20615;-83
2024/02/02 00:34:19;;;;;;;0.30;0.20;;;7.00;99.90;;;;;;5107459;28;20303;-83
2024/02/02 00:36:45;;;;;;;0.30;0.20;;;6.90;99.90;;;;;;5107404;27;20232;-80
2024/02/02 00:39:11;;;;;;;0.30;0.20;;;6.90;99.90;;;;;;5107481;28;20301;-83
2024/02/02 00:41:37;;;;;;;0.30;0.20;;;6.90;99.90;;;;;;5122221;27;20386;-80
2024/02/02 00:44:04;;;;;;;1.10;1.07;;;6.90;99.90;;;;;;5107024;28;20196;-83
2024/02/02 00:46:30;;;;;;;0.30;0.20;;;6.80;99.90;;;;;;5107068;28;20251;-81
2024/02/02 00:48:55;;;;;;;0.30;0.20;;;6.80;99.90;;;;;;5107092;28;20629;-80
2024/02/02 00:51:21;;;;;;;0.30;0.20;;;6.80;99.90;;;;;;5122724;27;20438;-80
2024/02/02 00:53:47;;;;;;;0.30;0.20;;;6.80;99.90;;;;;;5122863;27;20519;-80
2024/02/02 00:56:13;;;;;;;0.30;0.20;;;6.80;99.90;;;;;;5106571;28;20523;-80
2024/02/02 00:58:39;;;;;;;0.30;0.20;;;6.80;99.90;;;;;;5122902;27;20199;-82
2024/02/02 01:01:05;;;;;;;0.30;0.20;;;6.70;99.90;;;;;;5122285;27;20210;-80
2024/02/02 01:03:33;;;;;;;0.30;0.20;;;6.70;99.90;;;;;;5106933;28;20382;-80
2024/02/02 01:05:59;;;;;;;0.30;0.20;;;6.60;99.90;;;;;;5105781;28;20191;-80
2024/02/02 01:08:25;;;;;;;0.30;0.20;;;6.60;99.90;;;;;;5106580;28;20656;-80
2024/02/02 01:10:51;;;;;;;0.30;0.20;;;6.60;99.90;;;;;;5122330;27;20180;-83
2024/02/02 01:13:17;;;;;;;0.30;0.20;;;6.60;99.90;;;;;;5122522;27;20214;-80
2024/02/02 01:15:43;;;;;;;0.30;0.20;;;6.60;99.90;;;;;;5106437;28;20167;-82
2024/02/02 01:18:08;;;;;;;0.30;0.20;;;6.50;99.90;;;;;;5122210;27;20195;-80
2024/02/02 01:20:34;;;;;;;0.30;0.30;;;6.50;99.90;;;;;;5121966;27;20474;-80
2024/02/02 01:23:01;;;;;;;0.30;0.20;;;6.50;99.90;;;;;;5122167;27;20268;-82
2024/02/02 01:25:29;;;;;;;0.30;0.20;;;6.50;99.90;;;;;;5122248;27;20671;-83
2024/02/02 01:27:56;;;;;;;0.30;0.20;;;6.50;99.90;;;;;;5106443;28;20241;-84
2024/02/02 01:30:23;;;;;;;0.30;0.20;;;6.50;99.90;;;;;;5105654;28;20218;-80
2024/02/02 01:32:49;;;;;;;0.30;0.20;;;6.50;99.90;;;;;;5106069;28;20195;-80
2024/02/02 01:35:17;;;;;;;0.30;0.20;;;6.50;99.90;;;;;;5121593;27;20182;-80
2024/02/02 01:37:45;;;;;;;0.30;0.20;;;6.40;99.90;;;;;;5106180;28;20195;-80
2024/02/02 01:40:14;;;;;;;0.30;0.20;;;6.40;99.90;;;;;;5105956;28;20279;-82
2024/02/02 01:42:40;;;;;;;18.73;3.58;;;6.40;99.90;;;;;;5106352;28;20235;-79
2024/02/02 01:45:06;;;;;;;0.30;0.20;;;6.40;99.90;;;;;;5120887;27;20652;-80
2024/02/02 01:47:33;;;;;;;0.30;0.30;;;6.40;99.90;;;;;;5106004;28;20386;-81
2024/02/02 01:49:59;;;;;;;0.30;0.20;;;6.30;99.90;;;;;;5121494;27;20183;-82
2024/02/02 01:52:25;;;;;;;0.30;0.20;;;6.40;99.90;;;;;;5121916;27;20665;-82
2024/02/02 01:54:51;;;;;;;0.30;0.20;;;6.30;99.90;;;;;;5106035;28;20409;-80
2024/02/02 01:57:17;;;;;;;0.30;0.20;;;6.40;99.90;;;;;;5106298;28;20505;-82
2024/02/02 01:59:43;;;;;;;0.30;0.20;;;6.30;99.90;;;;;;5121481;27;20652;-80
2024/02/02 02:02:10;;;;;;;0.30;0.20;;;6.30;99.90;;;;;;5121499;27;20268;-80
2024/02/02 02:04:35;;;;;;;0.30;0.30;;;6.30;99.90;;;;;;5121528;27;20432;-82
2024/02/02 02:07:02;;;;;;;0.30;0.20;;;6.30;99.90;;;;;;5120965;28;20603;-82
2024/02/02 02:09:28;;;;;;;0.30;0.20;;;6.30;99.90;;;;;;5121534;28;20927;-79
2024/02/02 02:11:55;;;;;;;0.30;0.20;;;6.30;99.90;;;;;;5105765;28;20248;-79
2024/02/02 02:14:21;;;;;;;0.30;0.20;;;6.20;99.90;;;;;;5105567;28;20286;-82
2024/02/02 02:16:50;;;;;;;0.30;0.20;;;6.20;99.90;;;;;;5121380;28;20266;-82
2024/02/02 02:19:15;;;;;;;0.30;0.20;;;6.20;99.90;;;;;;5107603;28;20209;-80
2024/02/02 02:21:41;;;;;;;0.30;0.20;;;6.20;99.90;;;;;;5110106;28;20467;-79
2024/02/02 02:24:10;;;;;;;0.30;0.20;;;6.10;99.90;;;;;;5109830;28;20192;-83
2024/02/02 02:26:37;;;;;;;0.30;0.20;;;6.20;99.90;;;;;;5109933;28;20164;-82
2024/02/02 02:29:03;;;;;;;0.30;0.30;;;6.20;99.90;;;;;;5125459;27;20230;-80
2024/02/02 02:31:29;;;;;;;0.30;0.20;;;6.10;99.90;;;;;;5109107;28;20207;-82
2024/02/02 02:33:55;;;;;;;0.30;0.20;;;6.10;99.90;;;;;;5109822;28;20929;-79
2024/02/02 02:36:21;;;;;;;0.30;0.20;;;6.10;99.90;;;;;;5109437;28;20530;-79
2024/02/02 02:38:47;;;;;;;0.30;0.20;;;6.10;99.90;;;;;;5125491;27;20502;-79
2024/02/02 02:41:13;;;;;;;0.30;0.20;;;6.00;99.90;;;;;;5124925;27;20521;-82
2024/02/02 02:43:39;;;;;;;0.30;0.20;;;6.00;99.90;;;;;;5125422;27;20729;-82
2024/02/02 02:46:06;;;;;;;0.30;0.20;;;6.00;99.90;;;;;;5123408;27;20935;-83
2024/02/02 02:48:32;;;;;;;0.30;0.20;;;6.00;99.90;;;;;;5109754;27;20390;-82
2024/02/02 02:50:57;;;;;;;0.30;0.20;;;6.00;99.90;;;;;;5108949;28;20187;-80
2024/02/02 02:53:23;;;;;;;0.30;0.30;;;5.90;99.90;;;;;;5125287;27;20860;-80
2024/02/02 02:55:49;;;;;;;0.30;0.20;;;5.90;99.90;;;;;;5124984;27;20514;-82
2024/02/02 02:58:15;;;;;;;0.30;0.30;;;5.90;99.90;;;;;;5109202;28;20566;-80
2024/02/02 03:00:41;;;;;;;0.30;0.20;;;5.90;99.90;;;;;;5125053;27;20763;-83
2024/02/02 03:03:07;;;;;;;0.30;0.30;;;5.80;99.90;;;;;;5109360;28;20310;-80
2024/02/02 03:05:33;;;;;;;0.30;0.20;;;5.80;99.90;;;;;;5108752;28;20423;-82
2024/02/02 03:07:58;;;;;;;0.30;0.30;;;5.80;99.90;;;;;;5124846;27;20247;-83
2024/02/02 03:10:25;;;;;;;0.30;0.20;;;5.80;99.90;;;;;;5124210;27;20217;-82
2024/02/02 03:12:54;;;;;;;0.30;0.30;;;5.70;99.90;;;;;;5125021;27;20226;-82
2024/02/02 03:15:20;;;;;;;0.30;0.30;;;5.70;99.90;;;;;;5124642;27;20180;-79
2024/02/02 03:17:47;;;;;;;0.30;0.20;;;5.70;99.90;;;;;;5109045;28;20200;-80
2024/02/02 03:20:13;;;;;;;0.30;0.20;;;5.70;99.90;;;;;;5124182;27;20171;-79
2024/02/02 03:22:39;;;;;;;0.30;0.20;;;5.60;99.90;;;;;;5124496;27;20226;-82
2024/02/02 03:25:05;;;;;;;0.30;0.20;;;5.60;99.90;;;;;;5108840;28;20179;-82
2024/02/02 03:27:32;;;;;;;0.30;0.30;;;5.70;99.90;;;;;;5108703;28;20236;-80
2024/02/02 03:29:58;;;;;;;0.30;0.20;;;5.70;99.90;;;;;;5123248;27;20191;-81
2024/02/02 03:32:24;;;;;;;0.30;0.20;;;5.70;99.90;;;;;;5123853;27;20632;-84
2024/02/02 03:34:49;;;;;;;0.30;0.20;;;5.70;99.90;;;;;;5124442;27;20185;-82
2024/02/02 03:37:15;;;;;;;0.30;0.30;;;5.70;99.90;;;;;;5108644;28;20893;-83
2024/02/02 03:39:41;;;;;;;0.30;0.20;;;5.70;99.90;;;;;;5108089;28;20622;-81
2024/02/02 03:42:07;;;;;;;0.30;0.30;;;5.70;99.90;;;;;;5108430;28;20700;-80
2024/02/02 03:44:33;;;;;;;0.30;0.20;;;5.70;99.90;;;;;;5123875;27;20261;-80
2024/02/02 03:46:58;;;;;;;0.30;0.30;;;5.70;99.90;;;;;;5107455;28;20522;-80
2024/02/02 03:49:24;;;;;;;0.30;0.30;;;5.70;99.90;;;;;;5108511;28;20199;-83
2024/02/02 03:51:50;;;;;;;0.30;0.20;;;5.60;99.90;;;;;;5124184;27;20176;-82
2024/02/02 03:54:15;;;;;;;0.30;0.30;;;5.60;99.90;;;;;;5108110;28;20199;-84
2024/02/02 03:56:42;;;;;;;0.30;0.20;;;5.60;99.90;;;;;;5123718;27;20488;-84
2024/02/02 03:59:09;;;;;;;0.30;0.20;;;5.60;99.90;;;;;;5124037;27;20211;-80
2024/02/02 04:01:35;;;;;;;0.30;0.20;;;5.60;99.90;;;;;;5108147;28;20290;-80
2024/02/02 04:04:01;;;;;;;0.30;0.20;;;5.60;99.90;;;;;;5108400;28;20713;-83
2024/02/02 04:06:28;;;;;;;0.30;0.20;;;5.60;99.90;;;;;;5107051;28;20382;-80
2024/02/02 04:08:53;;;;;;;0.30;0.20;;;5.60;99.90;;;;;;5123896;27;20195;-80
2024/02/02 04:11:19;;;;;;;0.30;0.30;;;5.60;99.90;;;;;;5123655;27;20269;-83
2024/02/02 04:13:45;;;;;;;0.30;0.30;;;5.60;99.90;;;;;;5108021;27;20199;-80
2024/02/02 04:16:11;;;;;;;0.30;0.20;;;5.60;99.90;;;;;;5123382;27;20497;-80
2024/02/02 04:18:36;;;;;;;0.30;0.30;;;5.60;99.90;;;;;;5107734;28;20586;-80
2024/02/02 04:21:02;;;;;;;0.30;0.20;;;5.70;99.90;;;;;;5122947;27;20643;-82
2024/02/02 04:23:28;;;;;;;0.30;0.20;;;5.80;99.90;;;;;;5123767;27;20725;-83
2024/02/02 04:25:54;;;;;;;0.30;0.30;;;5.80;99.90;;;;;;5107123;28;20225;-83
2024/02/02 04:28:20;;;;;;;0.30;0.20;;;5.80;99.90;;;;;;5123186;27;20999;-80
2024/02/02 04:30:45;;;;;;;0.30;0.30;;;5.90;99.90;;;;;;5123048;27;20632;-84
2024/02/02 04:33:11;;;;;;;0.30;0.20;;;5.90;99.90;;;;;;5122597;27;20430;-85
2024/02/02 04:35:38;;;;;;;0.30;0.30;;;6.00;99.90;;;;;;5107393;28;20404;-81
2024/02/02 04:38:04;;;;;;;0.30;0.30;;;6.00;99.90;;;;;;5107496;28;20440;-82
2024/02/02 04:40:30;;;;;;;0.30;0.20;;;6.00;99.90;;;;;;5123278;27;20798;-84
2024/02/02 04:42:56;;;;;;;0.30;0.20;;;6.00;99.90;;;;;;5122428;27;20307;-85
2024/02/02 04:45:22;;;;;;;0.30;0.20;;;6.00;99.90;;;;;;5122589;27;20469;-81
2024/02/02 04:47:48;;;;;;;0.30;0.20;;;6.00;99.90;;;;;;5122720;27;20203;-82
2024/02/02 04:50:14;;;;;;;0.30;0.20;;;6.00;99.90;;;;;;5121593;27;20179;-84
2024/02/02 04:52:39;;;;;;;0.30;0.20;;;6.00;99.90;;;;;;5123006;27;20199;-81
2024/02/02 04:55:05;;;;;;;0.30;0.20;;;6.00;99.90;;;;;;5106859;28;20483;-83
2024/02/02 04:57:31;;;;;;;0.30;0.20;;;5.90;99.90;;;;;;5122925;27;20750;-84
2024/02/02 04:59:57;;;;;;;0.30;0.27;;;5.90;99.90;;;;;;5122507;27;20176;-81
2024/02/02 05:02:23;;;;;;;0.30;0.30;;;5.80;99.90;;;;;;5105945;28;20231;-83
2024/02/02 05:04:48;;;;;;;0.30;0.20;;;5.70;99.90;;;;;;5105309;28;20374;-84
2024/02/02 05:07:15;;;;;;;0.30;0.20;;;5.70;99.90;;;;;;5115257;27;20767;-82
2024/02/02 05:09:40;;;;;;;0.30;0.20;;;5.70;99.90;;;;;;5128009;27;20235;-84
2024/02/02 05:12:06;;;;;;;0.30;0.30;;;5.60;99.90;;;;;;5120210;27;20187;-81
2024/02/02 05:14:32;;;;;;;0.30;0.20;;;5.60;99.90;;;;;;5120746;27;20219;-82
2024/02/02 05:16:59;;;;;;;0.83;0.83;;;5.60;99.90;;;;;;5104972;28;20450;-84
2024/02/02 05:19:24;;;;;;;0.30;0.20;;;5.60;99.90;;;;;;5121156;27;20260;-85
2024/02/02 05:21:50;;;;;;;0.30;0.20;;;5.50;99.90;;;;;;5122207;27;20618;-81
2024/02/02 05:24:16;;;;;;;0.30;0.20;;;5.50;99.90;;;;;;5105828;28;20199;-84
2024/02/02 05:26:41;;;;;;;0.30;0.20;;;5.50;99.90;;;;;;5121981;27;20171;-84
2024/02/02 05:29:07;;;;;;;0.30;0.20;;;5.50;99.90;;;;;;5105049;28;20813;-84
2024/02/02 05:31:33;;;;;;;0.30;0.20;;;5.50;99.90;;;;;;5121560;27;20722;-84
2024/02/02 05:33:58;;;;;;;0.30;0.20;;;5.50;99.90;;;;;;5104424;28;20269;-84
2024/02/02 05:36:24;;;;;;;0.30;0.20;;;5.50;99.90;;;;;;5104185;28;20172;-81
2024/02/02 05:38:50;;;;;;;0.30;0.20;;;5.50;99.90;;;;;;5104229;28;20196;-84
2024/02/02 05:41:15;;;;;;;0.30;0.20;;;5.50;99.90;;;;;;5121684;27;20214;-81
2024/02/02 05:43:41;;;;;;;0.30;0.30;;;5.50;99.90;;;;;;5111375;27;20211;-84
2024/02/02 05:46:07;;;;;;;0.30;0.30;;;5.50;99.90;;;;;;5101273;28;20176;-82
2024/02/02 05:48:32;;;;;;;0.30;0.20;;;5.50;99.90;;;;;;5121277;27;20543;-84
2024/02/02 05:50:59;;;;;;;0.30;0.20;;;5.50;99.90;;;;;;5103798;28;20516;-82
2024/02/02 05:53:24;;;;;;;0.30;0.20;;;5.50;99.90;;;;;;5119956;27;20196;-82
2024/02/02 05:55:50;;;;;;;0.30;0.20;;;5.60;99.90;;;;;;5116951;27;20202;-84
2024/02/02 05:58:16;;;;;;;0.30;0.30;;;5.60;99.90;;;;;;5095098;28;20283;-81
2024/02/02 06:00:41;;;;;;;0.30;0.30;;;5.60;99.90;;;;;;5100940;28;20179;-84
2024/02/02 06:03:07;;;;;;;0.30;0.20;;;5.60;99.90;;;;;;5103162;28;20541;-82
2024/02/02 06:05:33;;;;;;;0.30;0.20;;;5.60;99.90;;;;;;5101047;28;20175;-84
2024/02/02 06:08:02;;;;;;;0.30;0.30;;;5.60;99.90;;;;;;5102621;28;20265;-82
2024/02/02 06:10:28;;;;;;;0.30;0.20;;;5.60;99.90;;;;;;5100379;28;20630;-84
2024/02/02 06:12:54;;;;;;;0.30;0.20;;;5.70;99.90;;;;;;5106752;28;20295;-82
2024/02/02 06:15:20;;;;;;;0.30;0.30;;;5.70;99.90;;;;;;5102284;28;20383;-82
2024/02/02 06:17:45;;;;;;;0.30;0.20;;;5.80;99.90;;;;;;5103806;28;20195;-81
2024/02/02 06:20:12;;;;;;;0.30;0.20;;;5.70;99.90;;;;;;5101687;28;20501;-84
2024/02/02 06:22:38;;;;;;;0.30;0.30;;;5.60;99.90;;;;;;5105042;28;20223;-82
2024/02/02 06:25:05;;;;;;;0.30;0.20;;;5.60;99.90;;;;;;5101327;28;20253;-84
2024/02/02 06:27:31;;;;;;;0.30;0.20;;;5.60;99.90;;;;;;5101984;28;20182;-82
2024/02/02 06:30:00;;;;;;;0.30;0.30;;;5.50;99.90;;;;;;5100676;28;20657;-83
2024/02/02 06:32:26;;;;;;;0.30;0.20;;;5.50;99.90;;;;;;5092986;28;20700;-82
2024/02/02 06:34:55;;;;;;;0.30;0.20;;;5.50;99.90;;;;;;5096279;28;20188;-82
2024/02/02 06:37:25;;;;;;;0.30;0.20;;;5.40;99.90;;;;;;5108634;28;20183;-81
2024/02/02 06:39:57;;;;;;;0.30;0.20;;;5.40;99.90;;;;;;5092225;28;20253;-82
2024/02/02 06:42:27;;;;;;;0.30;0.20;;;5.40;99.90;;;;;;5093818;28;20212;-79
2024/02/02 06:44:54;;;;;;;0.30;0.30;;;5.40;99.90;;;;;;5100126;28;20187;-82
2024/02/02 06:47:20;;;;;;;0.30;0.20;;;5.40;99.90;;;;;;5117847;28;20183;-79
2024/02/02 06:49:46;;;;;;;0.30;0.20;;;5.40;99.90;;;;;;5115623;28;20530;-80
2024/02/02 06:52:14;;;;;;;0.30;0.20;;;5.40;99.90;;;;;;5117351;28;20456;-81
2024/02/02 06:54:40;;;;;;;0.30;0.20;;;5.40;99.90;;;;;;5107558;28;20447;-80
2024/02/02 06:57:06;;;;;;;0.30;0.20;;;5.50;99.90;;;;;;5095238;28;20176;-80
2024/02/02 06:59:32;;;;;;;0.30;0.20;;;5.40;99.90;;;;;;5096775;28;20324;-82
2024/02/02 07:01:59;;;;;;;0.30;0.20;;;5.50;99.90;;;;;;5095988;28;20215;-80
2024/02/02 07:04:25;;;;;;;0.30;0.20;;;5.50;99.90;;;;;;5096860;28;20192;-79
2024/02/02 07:06:52;;;;;;;0.30;0.20;;;5.50;99.90;;;;;;5101926;28;20251;-83
2024/02/02 07:09:17;;;;;;;0.30;0.20;;;5.50;99.90;;;;;;5088853;28;20236;-81
2024/02/02 07:11:58;;;;;;;0.30;0.20;;;5.50;99.90;;;;;;5097406;28;20203;-83
2024/02/02 07:14:47;;;;;;;0.30;0.20;;;5.60;99.90;;;;;;5104867;28;20218;-83
2024/02/02 07:17:34;;;;;;;0.30;0.30;;;5.60;99.90;;;;;;5100867;28;20320;-81
2024/02/02 07:20:01;;;;;;;0.30;0.20;;;5.60;99.90;;;;;;5105795;28;20629;-79
2024/02/02 07:22:40;;;;;;;0.30;0.20;;;5.70;99.90;;;;;;5106618;28;20208;-80
2024/02/02 07:25:21;;;;;;;0.30;0.20;;;5.70;99.90;;;;;;5105944;28;20299;-79
2024/02/02 07:27:51;;;;;;;0.30;0.20;;;5.70;99.90;;;;;;5102447;28;20212;-82
2024/02/02 07:30:41;;;;;;;0.30;0.30;;;5.80;99.90;;;;;;5103166;28;20215;-82
2024/02/02 07:33:33;;;;;;;0.30;0.20;;;5.80;99.90;;;;;;5102732;28;20215;-82
2024/02/02 07:35:59;;;;;;;0.30;0.20;;;5.90;99.90;;;;;;5096000;28;20187;-80
2024/02/02 07:38:41;;;;;;;0.30;0.20;;;5.90;99.90;;;;;;5104312;28;20298;-80
2024/02/02 07:41:13;;;;;;;0.30;0.20;;;6.00;99.90;;;;;;5100919;28;20215;-83
2024/02/02 07:43:39;;;;;;;0.30;0.20;;;6.10;99.90;;;;;;5084901;28;20615;-80
2024/02/02 07:46:05;;;;;;;0.30;0.20;;;6.10;99.90;;;;;;5101527;28;20180;-81
2024/02/02 07:48:32;;;;;;;0.30;0.20;;;6.20;99.90;;;;;;5105350;28;20689;-81
2024/02/02 07:50:58;;;;;;;0.30;0.25;;;6.20;99.90;;;;;;5101955;28;20208;-83
2024/02/02 07:53:24;;;;;;;0.30;0.20;;;6.30;99.90;;;;;;5098950;28;20233;-85
2024/02/02 07:55:50;;;;;;;0.30;0.30;;;6.40;99.90;;;;;;5099522;28;20424;-81
2024/02/02 07:58:17;;;;;;;0.30;0.30;;;6.50;99.90;;;;;;5090997;28;20422;-80
2024/02/02 08:00:43;;;;;;;0.30;0.20;;;6.80;99.90;;;;;;5088438;28;20443;-80
2024/02/02 08:03:09;;;;;;;0.30;0.20;;;7.30;99.90;;;;;;5082424;28;20714;-80
2024/02/02 08:05:38;;;;;;;0.30;0.20;;;7.80;99.90;;;;;;5086030;28;20211;-80
2024/02/02 08:08:05;;;;;;;0.30;0.28;;;8.10;99.90;;;;;;5120611;27;21034;-83
2024/02/02 08:10:31;;;;;;;0.30;0.20;;;8.40;99.90;;;;;;5086843;28;20238;-84
2024/02/02 08:12:57;;;;;;;0.30;0.30;;;8.60;99.90;;;;;;5119115;27;20257;-80
2024/02/02 08:15:23;;;;;;;0.30;0.30;;;8.90;99.90;;;;;;5091794;28;20184;-79
2024/02/02 08:17:49;;;;;;;0.30;0.30;;;9.30;99.90;;;;;;5091154;28;20784;-80
2024/02/02 08:20:15;;;;;;;0.30;0.20;;;9.80;99.90;;;;;;5094631;28;20183;-82
2024/02/02 08:22:44;;;;;;;0.30;0.20;;;10.10;99.90;;;;;;5092528;28;20622;-83
2024/02/02 08:25:10;;;;;;;0.30;0.20;;;10.40;99.90;;;;;;5092152;28;20523;-80
2024/02/02 08:27:37;;;;;;;0.30;0.30;;;10.40;99.90;;;;;;5094227;28;20180;-82
2024/02/02 08:30:05;;;;;;;0.30;0.20;;;10.50;99.90;;;;;;5100825;28;20931;-82
2024/02/02 08:32:31;;;;;;;0.30;0.30;;;10.40;99.90;;;;;;5104748;28;20184;-80
2024/02/02 08:34:56;;;;;;;0.30;0.20;;;10.30;99.90;;;;;;5104716;27;20679;-80
2024/02/02 08:37:22;;;;;;;0.30;0.20;;;10.20;99.90;;;;;;5101275;28;20190;-80
2024/02/02 08:39:48;;;;;;;0.30;0.20;;;10.00;99.90;;;;;;5100418;28;20218;-82
2024/02/02 08:42:23;;;;;;;0.30;0.20;;;9.80;99.90;;;;;;5101215;28;20828;-80
2024/02/02 08:44:55;;;;;;;0.35;0.35;;;9.60;99.90;;;;;;5091430;28;20515;-80
2024/02/02 08:47:21;;;;;;;0.95;0.95;;;9.50;99.90;;;;;;5097469;28;20182;-80
2024/02/02 08:49:59;;;;;;;0.30;0.20;;;9.40;99.90;;;;;;5088947;28;20644;-81
2024/02/02 08:52:34;;;;;;;0.30;0.30;;;9.40;99.90;;;;;;5093227;28;20643;-83
2024/02/02 08:55:03;;;;;;;0.38;0.30;;;9.50;99.90;;;;;;5101471;28;20674;-83
2024/02/02 08:57:57;;;;;;;0.40;0.30;;;10.00;99.90;;;;;;5092850;28;20659;-81
2024/02/02 09:00:39;;;;;;;20.13;19.17;;;11.20;99.90;;;;;;5093450;28;20628;-80
2024/02/02 09:03:34;;;;;;;0.40;0.30;;;12.50;99.90;;;;;;5100939;28;20247;-80
2024/02/02 09:06:04;;;;;;;6.63;2.00;;;13.60;99.90;;;;;;5092985;28;20541;-83
2024/02/02 09:08:34;;;;;;;0.40;0.30;;;14.80;99.90;;;;;;5088152;28;20706;-81
2024/02/02 09:10:59;;;;;;;0.40;0.30;;;15.80;99.90;;;;;;5089318;28;20528;-80
2024/02/02 09:13:29;;;;;;;0.40;0.20;;;16.50;99.90;;;;;;5093980;28;20476;-81
2024/02/02 09:15:55;;;;;;;0.40;0.20;;;16.80;99.90;;;;;;5092589;27;20786;-83
2024/02/02 09:18:29;;;;;;;0.40;0.20;;;16.80;99.00;;;;;;5092956;28;21019;-81
2024/02/02 09:20:55;;;;;;;0.30;0.20;;;16.70;98.80;;;;;;5096316;28;20437;-83
2024/02/02 09:23:21;;;;;;;0.40;0.20;;;16.70;97.20;;;;;;5091481;28;20580;-82
2024/02/02 09:25:47;;;;;;;0.40;0.20;;;16.40;97.20;;;;;;5094915;28;20428;-81
2024/02/02 09:28:24;;;;;;;0.40;0.30;;;16.20;97.20;;;;;;5094394;28;20207;-81
2024/02/02 09:31:04;;;;;;;0.40;0.30;;;16.20;97.30;;;;;;5089551;28;20180;-83
2024/02/02 09:33:30;;;;;;;0.40;0.20;;;16.20;97.20;;;;;;5090664;28;20448;-83
2024/02/02 09:36:03;;;;;;;0.40;0.20;;;16.10;97.00;;;;;;5097221;28;20428;-83
2024/02/02 09:38:33;;;;;;;0.40;0.20;;;16.00;96.60;;;;;;5092979;28;20459;-83
2024/02/02 09:41:01;;;;;;;0.40;0.40;;;15.90;96.50;;;;;;5097019;28;20423;-81
2024/02/02 09:43:36;;;;;;;0.30;0.20;;;15.80;96.80;;;;;;5098490;28;20622;-84
2024/02/02 09:46:17;;;;;;;0.30;0.20;;;15.70;96.80;;;;;;5096148;28;20534;-81
2024/02/02 09:49:16;;;;;;;0.30;0.20;;;15.70;96.20;;;;;;5094324;28;20458;-83
2024/02/02 09:52:01;;;;;;;0.30;0.20;;;15.30;96.10;;;;;;5094751;28;20443;-83
2024/02/02 09:54:42;;;;;;;0.30;0.20;;;14.90;96.20;;;;;;5107292;27;20581;-83
2024/02/02 09:57:22;;;;;;;0.30;0.20;;;14.60;96.70;;;;;;5087324;28;21182;-81
2024/02/02 10:00:10;;;;;;;0.73;0.73;;;14.20;97.00;;;;;;5087021;28;20506;-81
2024/02/02 10:02:51;;;;;;;0.40;0.20;;;13.80;97.00;;;;;;5087168;28;20464;-83
2024/02/02 10:05:38;;;;;;;0.40;0.20;;;13.60;97.90;;;;;;5094214;28;20515;-81
2024/02/02 10:08:32;;;;;;;0.30;0.20;;;13.50;97.70;;;;;;5095713;28;20470;-80
2024/02/02 10:11:13;;;;;;;0.30;0.20;;;13.30;97.80;;;;;;5087444;28;20591;-82
2024/02/02 10:14:07;;;;;;;0.40;0.20;;;13.20;98.90;;;;;;5095940;28;20477;-82
2024/02/02 10:16:59;;;;;;;0.40;0.20;;;13.20;99.40;;;;;;5083449;28;20436;-80
2024/02/02 10:19:55;;;;;;;0.30;0.20;;;13.50;98.60;;;;;;5095966;28;20522;-83
2024/02/02 10:22:33;;;;;;;0.93;0.93;;;13.60;98.40;;;;;;5096638;28;20484;-80
2024/02/02 10:25:04;;;;;;;0.30;0.20;;;13.60;98.00;;;;;;5095506;28;20427;-85
2024/02/02 10:27:45;;;;;;;1.67;1.67;;;13.50;98.30;;;;;;5092621;28;20471;-83
2024/02/02 10:30:32;;;;;;;0.30;0.20;;;13.40;98.50;;;;;;5093986;28;20463;-80
2024/02/02 10:33:08;;;;;;;0.30;0.20;;;13.40;99.10;;;;;;5110795;28;20460;-81
2024/02/02 10:36:07;;;;;;;0.40;0.40;;;13.40;98.60;;;;;;5095205;28;20431;-80
2024/02/02 10:38:33;;;;;;;0.30;0.20;;;13.30;98.90;;;;;;5091378;28;20920;-82
2024/02/02 10:41:27;;;;;;;0.30;0.20;;;13.20;98.80;;;;;;5093761;28;20471;-82
2024/02/02 10:44:16;;;;;;;0.30;0.20;;;13.10;99.30;;;;;;5095585;28;20964;-80
2024/02/02 10:46:45;;;;;;;0.30;0.20;;;13.00;99.60;;;;;;5094220;28;21253;-82
2024/02/02 10:49:43;;;;;;;0.30;0.20;;;12.90;99.60;;;;;;5111215;27;20444;-83
2024/02/02 10:52:34;;;;;;;0.30;0.30;;;12.80;98.80;;;;;;5063818;28;21164;-80
2024/02/02 10:55:12;;;;;;;0.30;0.20;;;12.60;98.60;;;;;;5092853;28;20442;-82
2024/02/02 10:57:49;;;;;;;0.30;0.20;;;12.40;99.30;;;;;;5095098;28;20411;-82
2024/02/02 11:00:21;;;;;;;0.40;0.40;;;12.30;98.90;;;;;;5093983;28;20938;-80
2024/02/02 11:02:57;;;;;;;0.30;0.20;;;12.10;99.50;;;;;;5087711;28;20475;-81
2024/02/02 11:05:31;;;;;;;0.30;0.20;;;11.90;99.40;;;;;;5091296;28;20688;-80
2024/02/02 11:08:08;;;;;;;0.40;0.30;;;11.80;99.50;;;;;;5094699;28;20422;-81
2024/02/02 11:11:07;;;;;;;0.30;0.20;;;11.70;99.70;;;;;;5096919;28;20475;-80
2024/02/02 11:13:33;;;;;;;0.30;0.30;;;11.60;99.90;;;;;;5093839;27;20443;-80
2024/02/02 11:16:30;;;;;;;0.30;0.20;;;11.50;99.90;;;;;;5111592;27;20515;-80
2024/02/02 11:19:06;;;;;;;0.30;0.20;;;11.40;99.90;;;;;;5089607;28;20200;-80
2024/02/02 11:22:08;;;;;;;0.30;0.20;;;11.40;99.90;;;;;;5091955;28;20276;-82
2024/02/02 11:24:52;;;;;;;0.30;0.20;;;11.40;99.90;;;;;;5126663;27;20610;-80
2024/02/02 11:27:53;;;;;;;0.30;0.20;;;11.40;99.90;;;;;;5097256;28;20438;-83
2024/02/02 11:30:24;;;;;;;0.30;0.20;;;11.30;99.90;;;;;;5106418;27;20507;-83
2024/02/02 11:33:32;;;;;;;0.30;0.20;;;11.30;99.90;;;;;;5094462;28;20287;-80
2024/02/02 11:36:17;;;;;;;0.30;0.20;;;11.30;99.90;;;;;;5108488;27;20192;-83
2024/02/02 11:39:10;;;;;;;0.30;0.20;;;11.40;99.90;;;;;;5092446;28;20203;-81
2024/02/02 11:41:37;;;;;;;0.30;0.20;;;11.40;99.90;;;;;;5089580;28;20203;-83
2024/02/02 11:44:04;;;;;;;0.30;0.20;;;11.40;99.90;;;;;;5099904;28;21103;-82
2024/02/02 11:46:34;;;;;;;0.30;0.20;;;11.40;99.90;;;;;;5097412;28;20907;-81
2024/02/02 11:49:13;;;;;;;0.30;0.20;;;11.50;99.90;;;;;;5096959;28;20440;-80
2024/02/02 11:51:47;;;;;;;0.30;0.20;;;11.50;99.90;;;;;;5090247;28;20183;-80
2024/02/02 11:54:26;;;;;;;0.30;0.30;;;11.50;99.90;;;;;;5087847;28;20440;-80
2024/02/02 11:56:55;;;;;;;0.30;0.20;;;11.50;99.90;;;;;;5096482;28;20439;-80
2024/02/02 11:59:28;;;;;;;1.92;1.83;;;11.50;99.90;;;;;;5120131;27;20196;-80
2024/02/02 12:02:16;;;;;;;0.30;0.20;;;11.50;99.90;;;;;;5095588;28;20215;-80
2024/02/02 12:04:49;;;;;;;0.33;0.30;;;11.50;99.90;;;;;;5096320;28;20676;-82
2024/02/02 12:07:17;;;;;;;0.30;0.20;;;11.50;99.90;;;;;;5095685;28;20435;-82
2024/02/02 12:09:50;;;;;;;0.30;0.20;;;11.50;99.90;;;;;;5092803;28;20224;-82
2024/02/02 12:12:23;;;;;;;0.30;0.20;;;11.60;99.90;;;;;;5090639;28;20180;-84
2024/02/02 12:14:52;;;;;;;0.30;0.20;;;11.60;99.90;;;;;;5093185;28;20257;-83
2024/02/02 12:17:22;;;;;;;0.30;0.30;;;11.70;99.90;;;;;;5085347;28;20848;-81
2024/02/02 12:19:48;;;;;;;2.90;0.70;;;11.80;99.90;;;;;;5081352;28;20958;-83
2024/02/02 12:22:14;;;;;;;1.17;1.17;;;11.80;99.90;;;;;;5089642;28;20262;-83
2024/02/02 12:24:40;;;;;;;0.30;0.20;;;11.90;99.90;;;;;;5099384;28;20674;-84
2024/02/02 12:27:08;;;;;;;0.30;0.20;;;12.00;99.90;;;;;;5096334;28;20584;-83
2024/02/02 12:29:36;;;;;;;0.70;0.70;;;12.00;99.90;;;;;;5085492;28;20437;-81
2024/02/02 12:32:03;;;;;;;0.30;0.23;;;12.10;99.80;;;;;;5092738;28;20452;-83
2024/02/02 12:34:29;;;;;;;0.30;0.20;;;12.10;99.90;;;;;;5091123;28;20456;-83
2024/02/02 12:36:58;;;;;;;0.30;0.20;;;12.20;99.90;;;;;;5119038;27;20438;-83
2024/02/02 12:39:31;;;;;;;0.50;0.50;;;12.20;99.40;;;;;;5095819;28;20455;-84
2024/02/02 12:41:58;;;;;;;0.30;0.20;;;12.30;99.50;;;;;;5092296;28;20476;-80
2024/02/02 12:44:26;;;;;;;0.30;0.20;;;12.30;99.20;;;;;;5094910;28;20582;-81
2024/02/02 12:46:52;;;;;;;0.30;0.20;;;12.30;99.50;;;;;;5093676;28;20452;-81
2024/02/02 12:49:19;;;;;;;0.30;0.20;;;12.40;99.40;;;;;;5094187;28;20455;-84
2024/02/02 12:51:45;;;;;;;0.30;0.20;;;12.50;99.30;;;;;;5130006;27;20481;-84
2024/02/02 12:54:10;;;;;;;0.30;0.20;;;12.50;99.10;;;;;;5092717;28;20477;-83
2024/02/02 12:56:36;;;;;;;0.30;0.30;;;12.40;99.10;;;;;;5093995;28;20469;-81
2024/02/02 12:59:05;;;;;;;0.30;0.20;;;12.40;98.90;;;;;;5096183;28;20483;-81
2024/02/02 13:01:34;;;;;;;0.30;0.20;;;12.40;98.80;;;;;;5091164;28;21021;-81
2024/02/02 13:04:00;;;;;;;0.90;0.90;;;12.40;98.90;;;;;;5089758;28;20436;-84
2024/02/02 13:06:26;;;;;;;0.30;0.20;;;12.40;99.30;;;;;;5094249;28;20814;-81